sensor_id;sensor_type;location;lat;lon;timestamp;P1;durP1;ratioP1;P2;durP2;ratioP2
16854;SDS011;8543;54.522;18.550;2023-06-26T00:01:30;7.30;;;5.30;;
16854;SDS011;8543;54.522;18.550;2023-06-26T00:03:58;8.70;;;5.40;;
16854;SDS011;8543;54.522;18.550;2023-06-26T00:06:24;7.50;;;5.70;;
16854;SDS011;8543;54.522;18.550;2023-06-26T00:08:51;8.00;;;5.20;;
16854;SDS011;8543;54.522;18.550;2023-06-26T00:11:18;9.20;;;5.90;;
16854;SDS011;8543;54.522;18.550;2023-06-26T00:13:44;6.90;;;5.70;;
16854;SDS011;8543;54.522;18.550;2023-06-26T00:16:09;7.70;;;5.90;;
16854;SDS011;8543;54.522;18.550;2023-06-26T00:18:35;9.30;;;5.80;;
16854;SDS011;8543;54.522;18.550;2023-06-26T00:21:00;8.40;;;5.90;;
16854;SDS011;8543;54.522;18.550;2023-06-26T00:23:25;8.30;;;6.40;;
16854;SDS011;8543;54.522;18.550;2023-06-26T00:25:52;9.20;;;5.30;;
16854;SDS011;8543;54.522;18.550;2023-06-26T00:28:18;8.00;;;5.50;;
16854;SDS011;8543;54.522;18.550;2023-06-26T00:30:44;7.70;;;5.10;;
16854;SDS011;8543;54.522;18.550;2023-06-26T00:33:09;7.60;;;5.50;;
16854;SDS011;8543;54.522;18.550;2023-06-26T00:35:35;7.50;;;5.50;;
16854;SDS011;8543;54.522;18.550;2023-06-26T00:38:00;9.10;;;6.20;;
16854;SDS011;8543;54.522;18.550;2023-06-26T00:40:26;12.20;;;6.10;;
16854;SDS011;8543;54.522;18.550;2023-06-26T00:42:52;8.10;;;5.90;;
16854;SDS011;8543;54.522;18.550;2023-06-26T00:45:18;7.80;;;6.10;;
16854;SDS011;8543;54.522;18.550;2023-06-26T00:47:43;9.40;;;5.80;;
16854;SDS011;8543;54.522;18.550;2023-06-26T00:50:09;9.70;;;6.00;;
16854;SDS011;8543;54.522;18.550;2023-06-26T00:52:35;8.90;;;5.70;;
16854;SDS011;8543;54.522;18.550;2023-06-26T00:55:00;10.20;;;6.10;;
16854;SDS011;8543;54.522;18.550;2023-06-26T00:57:26;8.00;;;5.30;;
16854;SDS011;8543;54.522;18.550;2023-06-26T00:59:52;8.00;;;5.60;;
16854;SDS011;8543;54.522;18.550;2023-06-26T01:02:17;9.30;;;5.80;;
16854;SDS011;8543;54.522;18.550;2023-06-26T01:04:45;8.90;;;6.20;;
16854;SDS011;8543;54.522;18.550;2023-06-26T01:07:12;9.90;;;6.20;;
16854;SDS011;8543;54.522;18.550;2023-06-26T01:09:38;8.70;;;5.90;;
16854;SDS011;8543;54.522;18.550;2023-06-26T01:12:04;7.80;;;5.60;;
16854;SDS011;8543;54.522;18.550;2023-06-26T01:14:29;9.90;;;6.20;;
16854;SDS011;8543;54.522;18.550;2023-06-26T01:16:55;8.40;;;6.10;;
16854;SDS011;8543;54.522;18.550;2023-06-26T01:19:26;8.90;;;6.00;;
16854;SDS011;8543;54.522;18.550;2023-06-26T01:24:39;7.00;;;5.60;;
16854;SDS011;8543;54.522;18.550;2023-06-26T01:27:10;8.20;;;5.70;;
16854;SDS011;8543;54.522;18.550;2023-06-26T01:29:36;8.40;;;5.70;;
16854;SDS011;8543;54.522;18.550;2023-06-26T01:32:02;9.10;;;5.90;;
16854;SDS011;8543;54.522;18.550;2023-06-26T01:34:28;8.10;;;5.60;;
16854;SDS011;8543;54.522;18.550;2023-06-26T01:36:54;7.80;;;6.00;;
16854;SDS011;8543;54.522;18.550;2023-06-26T01:39:20;8.80;;;5.90;;
16854;SDS011;8543;54.522;18.550;2023-06-26T01:41:45;8.60;;;5.60;;
16854;SDS011;8543;54.522;18.550;2023-06-26T01:46:40;8.60;;;6.20;;
16854;SDS011;8543;54.522;18.550;2023-06-26T01:49:27;9.60;;;6.20;;
16854;SDS011;8543;54.522;18.550;2023-06-26T01:51:55;8.40;;;5.80;;
16854;SDS011;8543;54.522;18.550;2023-06-26T01:54:25;9.20;;;6.50;;
16854;SDS011;8543;54.522;18.550;2023-06-26T01:56:52;9.00;;;6.20;;
16854;SDS011;8543;54.522;18.550;2023-06-26T01:59:19;9.10;;;6.00;;
16854;SDS011;8543;54.522;18.550;2023-06-26T02:01:46;8.50;;;5.80;;
16854;SDS011;8543;54.522;18.550;2023-06-26T02:04:12;8.20;;;5.40;;
16854;SDS011;8543;54.522;18.550;2023-06-26T02:06:37;8.60;;;6.20;;
16854;SDS011;8543;54.522;18.550;2023-06-26T02:09:03;7.60;;;5.80;;
16854;SDS011;8543;54.522;18.550;2023-06-26T02:11:28;8.70;;;6.50;;
16854;SDS011;8543;54.522;18.550;2023-06-26T02:13:54;8.10;;;6.00;;
16854;SDS011;8543;54.522;18.550;2023-06-26T02:16:19;8.30;;;5.70;;
16854;SDS011;8543;54.522;18.550;2023-06-26T02:18:45;8.20;;;5.60;;
16854;SDS011;8543;54.522;18.550;2023-06-26T02:21:10;8.50;;;5.70;;
16854;SDS011;8543;54.522;18.550;2023-06-26T02:23:36;9.40;;;6.20;;
16854;SDS011;8543;54.522;18.550;2023-06-26T02:26:02;8.70;;;5.70;;
16854;SDS011;8543;54.522;18.550;2023-06-26T02:28:28;7.10;;;5.20;;
16854;SDS011;8543;54.522;18.550;2023-06-26T02:30:55;8.20;;;5.60;;
16854;SDS011;8543;54.522;18.550;2023-06-26T02:33:21;7.10;;;5.20;;
16854;SDS011;8543;54.522;18.550;2023-06-26T02:35:47;7.70;;;4.90;;
16854;SDS011;8543;54.522;18.550;2023-06-26T02:38:12;8.90;;;6.00;;
16854;SDS011;8543;54.522;18.550;2023-06-26T02:40:38;7.60;;;5.30;;
16854;SDS011;8543;54.522;18.550;2023-06-26T02:43:03;9.10;;;6.10;;
16854;SDS011;8543;54.522;18.550;2023-06-26T02:45:29;9.00;;;6.00;;
16854;SDS011;8543;54.522;18.550;2023-06-26T02:47:54;9.80;;;5.80;;
16854;SDS011;8543;54.522;18.550;2023-06-26T02:50:20;9.30;;;6.20;;
16854;SDS011;8543;54.522;18.550;2023-06-26T02:52:45;10.10;;;6.30;;
16854;SDS011;8543;54.522;18.550;2023-06-26T02:55:13;8.40;;;6.10;;
16854;SDS011;8543;54.522;18.550;2023-06-26T02:57:38;9.90;;;5.80;;
16854;SDS011;8543;54.522;18.550;2023-06-26T03:00:04;9.50;;;5.90;;
16854;SDS011;8543;54.522;18.550;2023-06-26T03:02:33;9.50;;;5.90;;
16854;SDS011;8543;54.522;18.550;2023-06-26T03:04:58;8.20;;;5.80;;
16854;SDS011;8543;54.522;18.550;2023-06-26T03:07:24;7.40;;;4.80;;
16854;SDS011;8543;54.522;18.550;2023-06-26T03:09:49;8.50;;;5.00;;
16854;SDS011;8543;54.522;18.550;2023-06-26T03:12:14;6.60;;;4.60;;
16854;SDS011;8543;54.522;18.550;2023-06-26T03:14:40;7.70;;;4.90;;
16854;SDS011;8543;54.522;18.550;2023-06-26T03:17:05;7.70;;;5.20;;
16854;SDS011;8543;54.522;18.550;2023-06-26T03:19:32;7.60;;;4.70;;
16854;SDS011;8543;54.522;18.550;2023-06-26T03:21:57;6.40;;;4.80;;
16854;SDS011;8543;54.522;18.550;2023-06-26T03:24:24;6.60;;;4.70;;
16854;SDS011;8543;54.522;18.550;2023-06-26T03:26:50;6.40;;;4.90;;
16854;SDS011;8543;54.522;18.550;2023-06-26T03:29:16;6.20;;;4.40;;
16854;SDS011;8543;54.522;18.550;2023-06-26T03:31:42;6.90;;;4.60;;
16854;SDS011;8543;54.522;18.550;2023-06-26T03:34:07;6.40;;;4.50;;
16854;SDS011;8543;54.522;18.550;2023-06-26T03:36:33;7.20;;;4.40;;
16854;SDS011;8543;54.522;18.550;2023-06-26T03:38:58;5.90;;;3.90;;
16854;SDS011;8543;54.522;18.550;2023-06-26T03:41:25;6.00;;;4.10;;
16854;SDS011;8543;54.522;18.550;2023-06-26T03:43:50;5.90;;;4.40;;
16854;SDS011;8543;54.522;18.550;2023-06-26T03:46:16;5.70;;;4.10;;
16854;SDS011;8543;54.522;18.550;2023-06-26T03:48:41;6.80;;;4.00;;
16854;SDS011;8543;54.522;18.550;2023-06-26T03:51:07;7.70;;;4.50;;
16854;SDS011;8543;54.522;18.550;2023-06-26T03:53:32;7.80;;;4.30;;
16854;SDS011;8543;54.522;18.550;2023-06-26T03:55:58;6.90;;;4.40;;
16854;SDS011;8543;54.522;18.550;2023-06-26T03:58:24;7.20;;;4.00;;
16854;SDS011;8543;54.522;18.550;2023-06-26T04:00:50;7.60;;;4.70;;
16854;SDS011;8543;54.522;18.550;2023-06-26T04:03:16;7.00;;;4.30;;
16854;SDS011;8543;54.522;18.550;2023-06-26T04:05:41;5.60;;;4.30;;
16854;SDS011;8543;54.522;18.550;2023-06-26T04:08:07;7.10;;;4.40;;
16854;SDS011;8543;54.522;18.550;2023-06-26T04:10:33;7.10;;;4.60;;
16854;SDS011;8543;54.522;18.550;2023-06-26T04:12:59;7.70;;;5.10;;
16854;SDS011;8543;54.522;18.550;2023-06-26T04:15:24;9.70;;;5.30;;
16854;SDS011;8543;54.522;18.550;2023-06-26T04:17:50;9.70;;;4.90;;
16854;SDS011;8543;54.522;18.550;2023-06-26T04:20:15;8.60;;;4.70;;
16854;SDS011;8543;54.522;18.550;2023-06-26T04:22:41;10.60;;;4.50;;
16854;SDS011;8543;54.522;18.550;2023-06-26T04:25:06;7.90;;;4.40;;
16854;SDS011;8543;54.522;18.550;2023-06-26T04:27:32;5.90;;;4.10;;
16854;SDS011;8543;54.522;18.550;2023-06-26T04:29:57;6.00;;;4.40;;
16854;SDS011;8543;54.522;18.550;2023-06-26T04:32:23;7.70;;;4.30;;
16854;SDS011;8543;54.522;18.550;2023-06-26T04:34:48;6.30;;;4.40;;
16854;SDS011;8543;54.522;18.550;2023-06-26T04:37:14;8.10;;;3.90;;
16854;SDS011;8543;54.522;18.550;2023-06-26T04:39:42;7.90;;;4.10;;
16854;SDS011;8543;54.522;18.550;2023-06-26T04:42:07;5.70;;;3.90;;
16854;SDS011;8543;54.522;18.550;2023-06-26T04:44:34;8.00;;;3.90;;
16854;SDS011;8543;54.522;18.550;2023-06-26T04:46:59;8.40;;;4.70;;
16854;SDS011;8543;54.522;18.550;2023-06-26T04:49:25;8.70;;;4.70;;
16854;SDS011;8543;54.522;18.550;2023-06-26T04:51:53;8.10;;;4.70;;
16854;SDS011;8543;54.522;18.550;2023-06-26T04:54:19;12.10;;;4.90;;
16854;SDS011;8543;54.522;18.550;2023-06-26T04:56:44;12.00;;;4.90;;
16854;SDS011;8543;54.522;18.550;2023-06-26T04:59:12;11.10;;;5.50;;
16854;SDS011;8543;54.522;18.550;2023-06-26T05:01:38;11.80;;;5.50;;
16854;SDS011;8543;54.522;18.550;2023-06-26T05:04:04;13.90;;;5.80;;
16854;SDS011;8543;54.522;18.550;2023-06-26T05:06:30;11.90;;;5.00;;
16854;SDS011;8543;54.522;18.550;2023-06-26T05:08:56;16.80;;;5.50;;
16854;SDS011;8543;54.522;18.550;2023-06-26T05:11:21;12.30;;;5.10;;
16854;SDS011;8543;54.522;18.550;2023-06-26T05:13:48;9.00;;;4.90;;
16854;SDS011;8543;54.522;18.550;2023-06-26T05:16:14;19.70;;;4.80;;
16854;SDS011;8543;54.522;18.550;2023-06-26T05:18:39;12.50;;;5.40;;
16854;SDS011;8543;54.522;18.550;2023-06-26T05:21:05;13.90;;;5.20;;
16854;SDS011;8543;54.522;18.550;2023-06-26T05:23:31;10.50;;;4.80;;
16854;SDS011;8543;54.522;18.550;2023-06-26T05:25:57;7.90;;;4.30;;
16854;SDS011;8543;54.522;18.550;2023-06-26T05:28:23;7.00;;;4.10;;
16854;SDS011;8543;54.522;18.550;2023-06-26T05:30:50;8.40;;;4.20;;
16854;SDS011;8543;54.522;18.550;2023-06-26T05:33:17;6.20;;;4.40;;
16854;SDS011;8543;54.522;18.550;2023-06-26T05:35:44;6.70;;;4.10;;
16854;SDS011;8543;54.522;18.550;2023-06-26T05:38:10;5.20;;;4.00;;
16854;SDS011;8543;54.522;18.550;2023-06-26T05:40:38;5.40;;;3.90;;
16854;SDS011;8543;54.522;18.550;2023-06-26T05:43:05;5.30;;;3.80;;
16854;SDS011;8543;54.522;18.550;2023-06-26T05:45:31;6.10;;;4.50;;
16854;SDS011;8543;54.522;18.550;2023-06-26T05:47:56;6.10;;;4.30;;
16854;SDS011;8543;54.522;18.550;2023-06-26T05:50:22;5.40;;;3.80;;
16854;SDS011;8543;54.522;18.550;2023-06-26T05:52:48;5.80;;;3.90;;
16854;SDS011;8543;54.522;18.550;2023-06-26T05:55:14;8.80;;;4.70;;
16854;SDS011;8543;54.522;18.550;2023-06-26T05:57:40;5.30;;;4.20;;
16854;SDS011;8543;54.522;18.550;2023-06-26T06:00:06;5.60;;;5.00;;
16854;SDS011;8543;54.522;18.550;2023-06-26T06:02:35;5.90;;;4.80;;
16854;SDS011;8543;54.522;18.550;2023-06-26T06:05:02;6.00;;;4.40;;
16854;SDS011;8543;54.522;18.550;2023-06-26T06:07:27;5.70;;;4.40;;
16854;SDS011;8543;54.522;18.550;2023-06-26T06:09:53;5.70;;;4.50;;
16854;SDS011;8543;54.522;18.550;2023-06-26T06:12:18;5.20;;;4.70;;
16854;SDS011;8543;54.522;18.550;2023-06-26T06:14:44;5.50;;;5.00;;
16854;SDS011;8543;54.522;18.550;2023-06-26T06:17:09;4.90;;;4.20;;
16854;SDS011;8543;54.522;18.550;2023-06-26T06:19:35;6.30;;;4.60;;
16854;SDS011;8543;54.522;18.550;2023-06-26T06:22:00;7.50;;;5.50;;
16854;SDS011;8543;54.522;18.550;2023-06-26T06:24:26;5.90;;;4.90;;
16854;SDS011;8543;54.522;18.550;2023-06-26T06:26:51;5.50;;;4.80;;
16854;SDS011;8543;54.522;18.550;2023-06-26T06:29:17;5.40;;;4.90;;
16854;SDS011;8543;54.522;18.550;2023-06-26T06:31:44;5.70;;;5.10;;
16854;SDS011;8543;54.522;18.550;2023-06-26T06:34:09;5.00;;;4.50;;
16854;SDS011;8543;54.522;18.550;2023-06-26T06:36:35;5.80;;;4.40;;
16854;SDS011;8543;54.522;18.550;2023-06-26T06:39:00;6.50;;;4.70;;
16854;SDS011;8543;54.522;18.550;2023-06-26T06:41:25;4.80;;;4.20;;
16854;SDS011;8543;54.522;18.550;2023-06-26T06:43:51;5.20;;;4.70;;
16854;SDS011;8543;54.522;18.550;2023-06-26T06:46:16;5.20;;;4.40;;
16854;SDS011;8543;54.522;18.550;2023-06-26T06:48:42;4.80;;;4.30;;
16854;SDS011;8543;54.522;18.550;2023-06-26T06:51:07;4.90;;;4.40;;
16854;SDS011;8543;54.522;18.550;2023-06-26T06:53:33;5.00;;;4.60;;
16854;SDS011;8543;54.522;18.550;2023-06-26T06:55:58;5.40;;;4.60;;
16854;SDS011;8543;54.522;18.550;2023-06-26T06:58:24;5.50;;;5.00;;
16854;SDS011;8543;54.522;18.550;2023-06-26T07:00:49;5.20;;;4.70;;
16854;SDS011;8543;54.522;18.550;2023-06-26T07:03:16;5.50;;;5.00;;
16854;SDS011;8543;54.522;18.550;2023-06-26T07:05:42;6.20;;;5.50;;
16854;SDS011;8543;54.522;18.550;2023-06-26T07:08:08;5.40;;;4.90;;
16854;SDS011;8543;54.522;18.550;2023-06-26T07:10:34;5.30;;;4.90;;
16854;SDS011;8543;54.522;18.550;2023-06-26T07:12:59;5.30;;;4.80;;
16854;SDS011;8543;54.522;18.550;2023-06-26T07:15:25;6.10;;;5.20;;
16854;SDS011;8543;54.522;18.550;2023-06-26T07:17:50;6.10;;;5.50;;
16854;SDS011;8543;54.522;18.550;2023-06-26T07:20:15;5.70;;;5.20;;
16854;SDS011;8543;54.522;18.550;2023-06-26T07:22:41;5.70;;;5.20;;
16854;SDS011;8543;54.522;18.550;2023-06-26T07:25:08;5.40;;;4.90;;
16854;SDS011;8543;54.522;18.550;2023-06-26T07:27:34;5.60;;;5.20;;
16854;SDS011;8543;54.522;18.550;2023-06-26T07:30:00;5.20;;;4.80;;
16854;SDS011;8543;54.522;18.550;2023-06-26T07:32:26;6.00;;;5.50;;
16854;SDS011;8543;54.522;18.550;2023-06-26T07:34:52;5.50;;;5.10;;
16854;SDS011;8543;54.522;18.550;2023-06-26T07:37:17;5.40;;;4.90;;
16854;SDS011;8543;54.522;18.550;2023-06-26T07:39:43;5.70;;;5.20;;
16854;SDS011;8543;54.522;18.550;2023-06-26T07:42:08;5.30;;;4.80;;
16854;SDS011;8543;54.522;18.550;2023-06-26T07:44:34;5.30;;;4.80;;
16854;SDS011;8543;54.522;18.550;2023-06-26T07:46:59;4.50;;;4.10;;
16854;SDS011;8543;54.522;18.550;2023-06-26T07:49:24;4.50;;;4.10;;
16854;SDS011;8543;54.522;18.550;2023-06-26T07:51:50;4.10;;;3.70;;
16854;SDS011;8543;54.522;18.550;2023-06-26T07:54:15;4.30;;;3.70;;
16854;SDS011;8543;54.522;18.550;2023-06-26T07:56:57;5.70;;;3.90;;
16854;SDS011;8543;54.522;18.550;2023-06-26T07:59:24;3.60;;;3.30;;
16854;SDS011;8543;54.522;18.550;2023-06-26T08:01:52;4.20;;;3.50;;
16854;SDS011;8543;54.522;18.550;2023-06-26T08:04:21;8.90;;;4.00;;
16854;SDS011;8543;54.522;18.550;2023-06-26T08:06:48;7.40;;;3.80;;
16854;SDS011;8543;54.522;18.550;2023-06-26T08:09:14;4.60;;;3.30;;
16854;SDS011;8543;54.522;18.550;2023-06-26T08:11:40;4.20;;;3.50;;
16854;SDS011;8543;54.522;18.550;2023-06-26T08:14:06;4.70;;;3.40;;
16854;SDS011;8543;54.522;18.550;2023-06-26T08:16:32;4.90;;;3.70;;
16854;SDS011;8543;54.522;18.550;2023-06-26T08:18:57;5.20;;;3.80;;
16854;SDS011;8543;54.522;18.550;2023-06-26T08:21:23;4.30;;;3.50;;
16854;SDS011;8543;54.522;18.550;2023-06-26T08:23:48;4.60;;;3.60;;
16854;SDS011;8543;54.522;18.550;2023-06-26T08:26:14;6.40;;;4.20;;
16854;SDS011;8543;54.522;18.550;2023-06-26T08:28:39;5.30;;;3.80;;
16854;SDS011;8543;54.522;18.550;2023-06-26T08:31:04;5.10;;;3.50;;
16854;SDS011;8543;54.522;18.550;2023-06-26T08:33:30;5.90;;;3.90;;
16854;SDS011;8543;54.522;18.550;2023-06-26T08:35:55;4.50;;;3.60;;
16854;SDS011;8543;54.522;18.550;2023-06-26T08:38:21;6.10;;;4.30;;
16854;SDS011;8543;54.522;18.550;2023-06-26T08:40:47;6.50;;;4.00;;
16854;SDS011;8543;54.522;18.550;2023-06-26T08:43:13;5.30;;;3.90;;
16854;SDS011;8543;54.522;18.550;2023-06-26T08:45:38;5.20;;;3.80;;
16854;SDS011;8543;54.522;18.550;2023-06-26T08:48:05;5.00;;;3.90;;
16854;SDS011;8543;54.522;18.550;2023-06-26T08:50:34;5.20;;;3.60;;
16854;SDS011;8543;54.522;18.550;2023-06-26T08:53:04;5.40;;;3.50;;
16854;SDS011;8543;54.522;18.550;2023-06-26T08:55:37;5.60;;;3.60;;
16854;SDS011;8543;54.522;18.550;2023-06-26T08:58:03;5.60;;;3.60;;
16854;SDS011;8543;54.522;18.550;2023-06-26T09:00:29;5.60;;;3.90;;
16854;SDS011;8543;54.522;18.550;2023-06-26T09:02:55;5.10;;;3.50;;
16854;SDS011;8543;54.522;18.550;2023-06-26T09:05:21;6.00;;;4.00;;
16854;SDS011;8543;54.522;18.550;2023-06-26T09:07:46;5.50;;;4.40;;
16854;SDS011;8543;54.522;18.550;2023-06-26T09:10:12;4.90;;;4.10;;
16854;SDS011;8543;54.522;18.550;2023-06-26T09:12:37;4.40;;;3.40;;
16854;SDS011;8543;54.522;18.550;2023-06-26T09:15:04;5.60;;;3.60;;
16854;SDS011;8543;54.522;18.550;2023-06-26T09:17:32;4.90;;;3.80;;
16854;SDS011;8543;54.522;18.550;2023-06-26T09:19:58;5.10;;;4.10;;
16854;SDS011;8543;54.522;18.550;2023-06-26T09:22:24;5.80;;;3.90;;
16854;SDS011;8543;54.522;18.550;2023-06-26T09:24:49;5.30;;;3.80;;
16854;SDS011;8543;54.522;18.550;2023-06-26T09:27:15;5.30;;;4.20;;
16854;SDS011;8543;54.522;18.550;2023-06-26T09:29:42;5.90;;;4.40;;
16854;SDS011;8543;54.522;18.550;2023-06-26T09:32:08;5.60;;;4.00;;
16854;SDS011;8543;54.522;18.550;2023-06-26T09:34:34;5.20;;;4.00;;
16854;SDS011;8543;54.522;18.550;2023-06-26T09:37:00;5.50;;;4.30;;
16854;SDS011;8543;54.522;18.550;2023-06-26T09:39:31;5.70;;;3.90;;
16854;SDS011;8543;54.522;18.550;2023-06-26T09:41:56;6.20;;;3.90;;
16854;SDS011;8543;54.522;18.550;2023-06-26T09:44:22;8.20;;;5.80;;
16854;SDS011;8543;54.522;18.550;2023-06-26T09:46:48;9.30;;;6.40;;
16854;SDS011;8543;54.522;18.550;2023-06-26T09:49:14;9.20;;;6.40;;
16854;SDS011;8543;54.522;18.550;2023-06-26T09:51:40;7.80;;;6.00;;
16854;SDS011;8543;54.522;18.550;2023-06-26T09:54:06;9.70;;;6.50;;
16854;SDS011;8543;54.522;18.550;2023-06-26T09:56:34;7.20;;;5.80;;
16854;SDS011;8543;54.522;18.550;2023-06-26T09:59:00;8.10;;;6.20;;
16854;SDS011;8543;54.522;18.550;2023-06-26T10:01:27;8.00;;;5.40;;
16854;SDS011;8543;54.522;18.550;2023-06-26T10:03:53;8.90;;;6.00;;
16854;SDS011;8543;54.522;18.550;2023-06-26T10:06:24;7.00;;;5.70;;
16854;SDS011;8543;54.522;18.550;2023-06-26T10:08:54;6.90;;;5.90;;
16854;SDS011;8543;54.522;18.550;2023-06-26T10:11:21;6.90;;;5.70;;
16854;SDS011;8543;54.522;18.550;2023-06-26T10:13:47;6.40;;;5.60;;
16854;SDS011;8543;54.522;18.550;2023-06-26T10:16:23;8.60;;;6.00;;
16854;SDS011;8543;54.522;18.550;2023-06-26T10:18:56;8.50;;;6.00;;
16854;SDS011;8543;54.522;18.550;2023-06-26T10:21:26;9.00;;;6.40;;
16854;SDS011;8543;54.522;18.550;2023-06-26T10:23:53;8.80;;;7.20;;
16854;SDS011;8543;54.522;18.550;2023-06-26T10:26:20;7.70;;;6.00;;
16854;SDS011;8543;54.522;18.550;2023-06-26T10:28:48;9.40;;;6.50;;
16854;SDS011;8543;54.522;18.550;2023-06-26T10:31:17;8.20;;;6.50;;
16854;SDS011;8543;54.522;18.550;2023-06-26T10:33:44;8.20;;;6.10;;
16854;SDS011;8543;54.522;18.550;2023-06-26T10:36:16;8.40;;;6.40;;
16854;SDS011;8543;54.522;18.550;2023-06-26T10:38:50;7.50;;;5.70;;
16854;SDS011;8543;54.522;18.550;2023-06-26T10:41:21;6.00;;;5.00;;
16854;SDS011;8543;54.522;18.550;2023-06-26T10:46:24;6.90;;;5.50;;
16854;SDS011;8543;54.522;18.550;2023-06-26T10:48:59;6.20;;;5.20;;
16854;SDS011;8543;54.522;18.550;2023-06-26T10:51:28;6.50;;;5.20;;
16854;SDS011;8543;54.522;18.550;2023-06-26T10:53:55;7.50;;;5.60;;
16854;SDS011;8543;54.522;18.550;2023-06-26T10:56:21;9.70;;;5.70;;
16854;SDS011;8543;54.522;18.550;2023-06-26T10:59:21;8.00;;;5.40;;
16854;SDS011;8543;54.522;18.550;2023-06-26T11:01:58;8.90;;;5.70;;
16854;SDS011;8543;54.522;18.550;2023-06-26T11:10:01;8.30;;;5.70;;
16854;SDS011;8543;54.522;18.550;2023-06-26T11:15:22;5.90;;;4.90;;
16854;SDS011;8543;54.522;18.550;2023-06-26T11:17:48;7.40;;;5.30;;
16854;SDS011;8543;54.522;18.550;2023-06-26T11:20:14;6.20;;;4.80;;
16854;SDS011;8543;54.522;18.550;2023-06-26T11:22:43;5.90;;;4.50;;
16854;SDS011;8543;54.522;18.550;2023-06-26T11:25:09;6.00;;;4.90;;
16854;SDS011;8543;54.522;18.550;2023-06-26T11:30:04;6.50;;;5.10;;
16854;SDS011;8543;54.522;18.550;2023-06-26T11:32:30;6.00;;;4.90;;
16854;SDS011;8543;54.522;18.550;2023-06-26T11:34:58;6.60;;;4.70;;
16854;SDS011;8543;54.522;18.550;2023-06-26T11:37:24;7.50;;;4.70;;
16854;SDS011;8543;54.522;18.550;2023-06-26T11:39:49;6.40;;;4.90;;
16854;SDS011;8543;54.522;18.550;2023-06-26T11:42:15;7.10;;;4.70;;
16854;SDS011;8543;54.522;18.550;2023-06-26T11:44:41;7.40;;;4.90;;
16854;SDS011;8543;54.522;18.550;2023-06-26T11:47:08;9.80;;;5.40;;
16854;SDS011;8543;54.522;18.550;2023-06-26T11:49:38;9.20;;;4.60;;
16854;SDS011;8543;54.522;18.550;2023-06-26T11:52:03;6.50;;;4.50;;
16854;SDS011;8543;54.522;18.550;2023-06-26T11:54:29;7.20;;;4.60;;
16854;SDS011;8543;54.522;18.550;2023-06-26T11:56:58;5.70;;;4.40;;
16854;SDS011;8543;54.522;18.550;2023-06-26T11:59:24;6.70;;;4.80;;
16854;SDS011;8543;54.522;18.550;2023-06-26T12:01:59;6.70;;;4.50;;
16854;SDS011;8543;54.522;18.550;2023-06-26T12:04:25;5.90;;;4.70;;
16854;SDS011;8543;54.522;18.550;2023-06-26T12:06:51;6.30;;;4.50;;
16854;SDS011;8543;54.522;18.550;2023-06-26T12:09:22;9.90;;;5.00;;
16854;SDS011;8543;54.522;18.550;2023-06-26T12:11:48;7.60;;;4.80;;
16854;SDS011;8543;54.522;18.550;2023-06-26T12:14:21;5.40;;;4.40;;
16854;SDS011;8543;54.522;18.550;2023-06-26T12:16:47;6.30;;;4.40;;
16854;SDS011;8543;54.522;18.550;2023-06-26T12:19:13;6.70;;;4.80;;
16854;SDS011;8543;54.522;18.550;2023-06-26T12:24:17;6.00;;;4.60;;
16854;SDS011;8543;54.522;18.550;2023-06-26T12:26:45;6.00;;;4.80;;
16854;SDS011;8543;54.522;18.550;2023-06-26T12:29:17;6.00;;;4.70;;
16854;SDS011;8543;54.522;18.550;2023-06-26T12:31:50;8.60;;;4.70;;
16854;SDS011;8543;54.522;18.550;2023-06-26T12:34:18;7.60;;;5.00;;
16854;SDS011;8543;54.522;18.550;2023-06-26T12:36:45;7.30;;;5.30;;
16854;SDS011;8543;54.522;18.550;2023-06-26T12:39:12;6.80;;;5.00;;
16854;SDS011;8543;54.522;18.550;2023-06-26T12:44:26;6.20;;;5.00;;
16854;SDS011;8543;54.522;18.550;2023-06-26T12:46:59;6.50;;;4.70;;
16854;SDS011;8543;54.522;18.550;2023-06-26T12:52:01;6.00;;;5.10;;
16854;SDS011;8543;54.522;18.550;2023-06-26T12:54:28;6.10;;;4.40;;
16854;SDS011;8543;54.522;18.550;2023-06-26T12:56:54;6.20;;;4.90;;
16854;SDS011;8543;54.522;18.550;2023-06-26T12:59:20;7.70;;;4.90;;
16854;SDS011;8543;54.522;18.550;2023-06-26T13:01:45;8.10;;;4.90;;
16854;SDS011;8543;54.522;18.550;2023-06-26T13:04:11;5.70;;;4.60;;
16854;SDS011;8543;54.522;18.550;2023-06-26T13:06:36;5.70;;;4.40;;
16854;SDS011;8543;54.522;18.550;2023-06-26T13:09:02;6.30;;;4.80;;
16854;SDS011;8543;54.522;18.550;2023-06-26T13:11:31;5.90;;;4.60;;
16854;SDS011;8543;54.522;18.550;2023-06-26T13:13:57;5.60;;;4.20;;
16854;SDS011;8543;54.522;18.550;2023-06-26T13:16:23;5.90;;;4.50;;
16854;SDS011;8543;54.522;18.550;2023-06-26T13:18:49;6.00;;;4.70;;
16854;SDS011;8543;54.522;18.550;2023-06-26T13:21:14;6.90;;;4.80;;
16854;SDS011;8543;54.522;18.550;2023-06-26T13:23:40;5.90;;;4.30;;
16854;SDS011;8543;54.522;18.550;2023-06-26T13:26:06;6.00;;;4.30;;
16854;SDS011;8543;54.522;18.550;2023-06-26T13:28:31;7.40;;;4.20;;
16854;SDS011;8543;54.522;18.550;2023-06-26T13:30:57;6.90;;;4.60;;
16854;SDS011;8543;54.522;18.550;2023-06-26T13:33:22;6.10;;;4.40;;
16854;SDS011;8543;54.522;18.550;2023-06-26T13:35:53;6.20;;;4.00;;
16854;SDS011;8543;54.522;18.550;2023-06-26T13:38:20;5.60;;;4.00;;
16854;SDS011;8543;54.522;18.550;2023-06-26T13:40:53;6.20;;;4.60;;
16854;SDS011;8543;54.522;18.550;2023-06-26T13:43:20;5.90;;;4.20;;
16854;SDS011;8543;54.522;18.550;2023-06-26T13:45:46;5.80;;;3.90;;
16854;SDS011;8543;54.522;18.550;2023-06-26T13:48:12;5.50;;;4.00;;
16854;SDS011;8543;54.522;18.550;2023-06-26T13:50:40;6.00;;;4.10;;
16854;SDS011;8543;54.522;18.550;2023-06-26T13:53:06;5.60;;;4.00;;
16854;SDS011;8543;54.522;18.550;2023-06-26T13:55:32;6.20;;;4.00;;
16854;SDS011;8543;54.522;18.550;2023-06-26T13:57:58;5.60;;;3.40;;
16854;SDS011;8543;54.522;18.550;2023-06-26T14:00:24;5.40;;;4.20;;
16854;SDS011;8543;54.522;18.550;2023-06-26T14:02:50;5.40;;;4.10;;
16854;SDS011;8543;54.522;18.550;2023-06-26T14:05:16;6.20;;;4.10;;
16854;SDS011;8543;54.522;18.550;2023-06-26T14:07:44;8.60;;;4.60;;
16854;SDS011;8543;54.522;18.550;2023-06-26T14:10:11;5.50;;;4.00;;
16854;SDS011;8543;54.522;18.550;2023-06-26T14:12:36;6.70;;;4.10;;
16854;SDS011;8543;54.522;18.550;2023-06-26T14:15:02;4.70;;;3.70;;
16854;SDS011;8543;54.522;18.550;2023-06-26T14:17:28;5.40;;;3.70;;
16854;SDS011;8543;54.522;18.550;2023-06-26T14:19:54;5.40;;;3.90;;
16854;SDS011;8543;54.522;18.550;2023-06-26T14:22:19;5.20;;;4.00;;
16854;SDS011;8543;54.522;18.550;2023-06-26T14:24:45;5.40;;;3.90;;
16854;SDS011;8543;54.522;18.550;2023-06-26T14:27:10;5.00;;;3.80;;
16854;SDS011;8543;54.522;18.550;2023-06-26T14:29:36;5.50;;;3.90;;
16854;SDS011;8543;54.522;18.550;2023-06-26T14:32:02;6.40;;;4.20;;
16854;SDS011;8543;54.522;18.550;2023-06-26T14:34:28;6.40;;;3.90;;
16854;SDS011;8543;54.522;18.550;2023-06-26T14:36:53;6.40;;;4.20;;
16854;SDS011;8543;54.522;18.550;2023-06-26T14:39:19;5.80;;;4.10;;
16854;SDS011;8543;54.522;18.550;2023-06-26T14:41:44;5.30;;;3.80;;
16854;SDS011;8543;54.522;18.550;2023-06-26T14:44:10;6.10;;;4.40;;
16854;SDS011;8543;54.522;18.550;2023-06-26T14:46:36;6.10;;;4.60;;
16854;SDS011;8543;54.522;18.550;2023-06-26T14:49:02;6.20;;;4.10;;
16854;SDS011;8543;54.522;18.550;2023-06-26T14:51:28;6.20;;;4.10;;
16854;SDS011;8543;54.522;18.550;2023-06-26T14:53:53;5.80;;;4.00;;
16854;SDS011;8543;54.522;18.550;2023-06-26T14:56:19;5.80;;;4.40;;
16854;SDS011;8543;54.522;18.550;2023-06-26T14:58:44;6.10;;;4.20;;
16854;SDS011;8543;54.522;18.550;2023-06-26T15:01:12;4.80;;;3.90;;
16854;SDS011;8543;54.522;18.550;2023-06-26T15:03:40;5.30;;;3.80;;
16854;SDS011;8543;54.522;18.550;2023-06-26T15:06:05;6.00;;;4.00;;
16854;SDS011;8543;54.522;18.550;2023-06-26T15:08:31;5.40;;;3.80;;
16854;SDS011;8543;54.522;18.550;2023-06-26T15:10:56;5.10;;;3.80;;